sensor_id;sensor_type;location;lat;lon;timestamp;temperature;humidity
52275;DHT22;38228;50.940;4.024;2024-01-27T00:00:25;4.30;99.90
52275;DHT22;38228;50.940;4.024;2024-01-27T00:03:02;4.10;99.90
52275;DHT22;38228;50.940;4.024;2024-01-27T00:05:33;4.00;99.90
52275;DHT22;38228;50.940;4.024;2024-01-27T00:08:11;3.90;99.90
52275;DHT22;38228;50.940;4.024;2024-01-27T00:10:46;3.90;99.90
52275;DHT22;38228;50.940;4.024;2024-01-27T00:13:17;3.80;99.90
52275;DHT22;38228;50.940;4.024;2024-01-27T00:15:43;3.80;99.90
52275;DHT22;38228;50.940;4.024;2024-01-27T00:18:11;3.70;99.90
52275;DHT22;38228;50.940;4.024;2024-01-27T00:20:53;3.80;99.90
52275;DHT22;38228;50.940;4.024;2024-01-27T00:23:24;3.90;99.90
52275;DHT22;38228;50.940;4.024;2024-01-27T00:25:58;3.90;99.90
52275;DHT22;38228;50.940;4.024;2024-01-27T00:28:29;4.00;99.90
52275;DHT22;38228;50.940;4.024;2024-01-27T00:31:07;4.10;99.90
52275;DHT22;38228;50.940;4.024;2024-01-27T00:33:39;3.90;99.90
52275;DHT22;38228;50.940;4.024;2024-01-27T00:36:10;3.80;99.90
52275;DHT22;38228;50.940;4.024;2024-01-27T00:38:51;3.70;99.90
52275;DHT22;38228;50.940;4.024;2024-01-27T00:41:22;3.70;99.90
52275;DHT22;38228;50.940;4.024;2024-01-27T00:43:57;3.60;99.90
52275;DHT22;38228;50.940;4.024;2024-01-27T00:46:29;3.60;99.90
52275;DHT22;38228;50.940;4.024;2024-01-27T00:49:04;3.80;99.90
52275;DHT22;38228;50.940;4.024;2024-01-27T00:51:35;3.80;99.90
52275;DHT22;38228;50.940;4.024;2024-01-27T00:54:07;4.00;99.90
52275;DHT22;38228;50.940;4.024;2024-01-27T00:56:44;4.10;99.90
52275;DHT22;38228;50.940;4.024;2024-01-27T00:59:25;4.20;99.90
52275;DHT22;38228;50.940;4.024;2024-01-27T01:01:56;4.10;99.90
52275;DHT22;38228;50.940;4.024;2024-01-27T01:04:27;3.90;99.90
52275;DHT22;38228;50.940;4.024;2024-01-27T01:07:04;3.80;99.90
52275;DHT22;38228;50.940;4.024;2024-01-27T01:09:39;3.50;99.90
52275;DHT22;38228;50.940;4.024;2024-01-27T01:12:21;3.40;99.90
52275;DHT22;38228;50.940;4.024;2024-01-27T01:14:53;3.40;99.90
52275;DHT22;38228;50.940;4.024;2024-01-27T01:17:23;3.40;99.90
52275;DHT22;38228;50.940;4.024;2024-01-27T01:20:04;3.30;99.90
52275;DHT22;38228;50.940;4.024;2024-01-27T01:22:42;3.30;99.90
52275;DHT22;38228;50.940;4.024;2024-01-27T01:25:23;3.10;99.90
52275;DHT22;38228;50.940;4.024;2024-01-27T01:28:01;3.10;99.90
52275;DHT22;38228;50.940;4.024;2024-01-27T01:30:29;3.30;99.90
52275;DHT22;38228;50.940;4.024;2024-01-27T01:33:09;3.30;99.90
52275;DHT22;38228;50.940;4.024;2024-01-27T01:35:41;3.30;99.90
52275;DHT22;38228;50.940;4.024;2024-01-27T01:38:16;3.40;99.90
52275;DHT22;38228;50.940;4.024;2024-01-27T01:40:51;3.40;99.90
52275;DHT22;38228;50.940;4.024;2024-01-27T01:43:23;3.30;99.90
52275;DHT22;38228;50.940;4.024;2024-01-27T01:46:21;3.10;99.90
52275;DHT22;38228;50.940;4.024;2024-01-27T01:48:55;3.00;99.90
52275;DHT22;38228;50.940;4.024;2024-01-27T01:51:42;3.10;99.90
52275;DHT22;38228;50.940;4.024;2024-01-27T01:54:13;3.00;99.90
52275;DHT22;38228;50.940;4.024;2024-01-27T01:56:57;3.10;99.90
52275;DHT22;38228;50.940;4.024;2024-01-27T01:59:34;3.10;99.90
52275;DHT22;38228;50.940;4.024;2024-01-27T02:02:06;3.00;99.90
52275;DHT22;38228;50.940;4.024;2024-01-27T02:04:40;3.00;99.90
52275;DHT22;38228;50.940;4.024;2024-01-27T02:07:08;2.90;99.90
52275;DHT22;38228;50.940;4.024;2024-01-27T02:09:38;2.90;99.90
52275;DHT22;38228;50.940;4.024;2024-01-27T02:12:09;2.90;99.90
52275;DHT22;38228;50.940;4.024;2024-01-27T02:14:40;2.90;99.90
52275;DHT22;38228;50.940;4.024;2024-01-27T02:17:10;2.80;99.90
52275;DHT22;38228;50.940;4.024;2024-01-27T02:19:41;2.70;99.90
52275;DHT22;38228;50.940;4.024;2024-01-27T02:22:22;2.70;99.90
52275;DHT22;38228;50.940;4.024;2024-01-27T02:24:57;2.70;99.90
52275;DHT22;38228;50.940;4.024;2024-01-27T02:27:45;2.70;99.90
52275;DHT22;38228;50.940;4.024;2024-01-27T02:30:14;2.70;99.90
52275;DHT22;38228;50.940;4.024;2024-01-27T02:32:47;2.60;99.90
52275;DHT22;38228;50.940;4.024;2024-01-27T02:35:18;2.70;99.90
52275;DHT22;38228;50.940;4.024;2024-01-27T02:37:55;2.70;99.90
52275;DHT22;38228;50.940;4.024;2024-01-27T02:40:26;2.70;99.90
52275;DHT22;38228;50.940;4.024;2024-01-27T02:42:52;2.70;99.90
52275;DHT22;38228;50.940;4.024;2024-01-27T02:45:25;2.60;99.90
52275;DHT22;38228;50.940;4.024;2024-01-27T02:48:02;2.70;99.90
52275;DHT22;38228;50.940;4.024;2024-01-27T02:50:37;2.60;99.90
52275;DHT22;38228;50.940;4.024;2024-01-27T02:53:14;2.70;99.90
52275;DHT22;38228;50.940;4.024;2024-01-27T02:55:45;2.70;99.90
52275;DHT22;38228;50.940;4.024;2024-01-27T02:58:25;2.70;99.90
52275;DHT22;38228;50.940;4.024;2024-01-27T03:00:56;2.60;99.90
52275;DHT22;38228;50.940;4.024;2024-01-27T03:03:22;2.70;99.90
52275;DHT22;38228;50.940;4.024;2024-01-27T03:05:51;2.90;99.90
52275;DHT22;38228;50.940;4.024;2024-01-27T03:08:22;2.80;99.90
52275;DHT22;38228;50.940;4.024;2024-01-27T03:11:00;2.90;99.90
52275;DHT22;38228;50.940;4.024;2024-01-27T03:13:29;2.90;99.90
52275;DHT22;38228;50.940;4.024;2024-01-27T03:16:01;2.80;99.90
52275;DHT22;38228;50.940;4.024;2024-01-27T03:18:29;2.70;99.90
52275;DHT22;38228;50.940;4.024;2024-01-27T03:20:58;2.70;99.90
52275;DHT22;38228;50.940;4.024;2024-01-27T03:23:38;2.80;99.90
52275;DHT22;38228;50.940;4.024;2024-01-27T03:26:05;2.70;99.90
52275;DHT22;38228;50.940;4.024;2024-01-27T03:28:44;2.80;99.90
52275;DHT22;38228;50.940;4.024;2024-01-27T03:31:14;2.70;99.90
52275;DHT22;38228;50.940;4.024;2024-01-27T03:33:55;2.70;99.90
52275;DHT22;38228;50.940;4.024;2024-01-27T03:36:33;2.70;99.90
52275;DHT22;38228;50.940;4.024;2024-01-27T03:39:06;2.60;99.90
52275;DHT22;38228;50.940;4.024;2024-01-27T03:41:40;2.60;99.90
52275;DHT22;38228;50.940;4.024;2024-01-27T03:44:11;2.60;99.90
52275;DHT22;38228;50.940;4.024;2024-01-27T03:46:46;2.60;99.90
52275;DHT22;38228;50.940;4.024;2024-01-27T03:49:14;2.60;99.90
52275;DHT22;38228;50.940;4.024;2024-01-27T03:51:46;2.60;99.90
52275;DHT22;38228;50.940;4.024;2024-01-27T03:54:25;2.50;99.90
52275;DHT22;38228;50.940;4.024;2024-01-27T03:56:56;2.50;99.90
52275;DHT22;38228;50.940;4.024;2024-01-27T03:59:27;2.50;99.90
52275;DHT22;38228;50.940;4.024;2024-01-27T04:02:08;2.40;99.90
52275;DHT22;38228;50.940;4.024;2024-01-27T04:04:45;2.60;99.90
52275;DHT22;38228;50.940;4.024;2024-01-27T04:07:26;2.50;99.90
52275;DHT22;38228;50.940;4.024;2024-01-27T04:10:03;2.50;99.90
52275;DHT22;38228;50.940;4.024;2024-01-27T04:12:38;2.40;99.90
52275;DHT22;38228;50.940;4.024;2024-01-27T04:15:10;2.40;99.90
52275;DHT22;38228;50.940;4.024;2024-01-27T04:17:42;2.30;99.90
52275;DHT22;38228;50.940;4.024;2024-01-27T04:20:13;2.30;99.90
52275;DHT22;38228;50.940;4.024;2024-01-27T04:22:51;2.30;99.90
52275;DHT22;38228;50.940;4.024;2024-01-27T04:25:21;2.20;99.90
52275;DHT22;38228;50.940;4.024;2024-01-27T04:27:50;2.20;99.90
52275;DHT22;38228;50.940;4.024;2024-01-27T04:30:20;2.20;99.90
52275;DHT22;38228;50.940;4.024;2024-01-27T04:32:52;2.40;99.90
52275;DHT22;38228;50.940;4.024;2024-01-27T04:35:23;2.30;99.90
52275;DHT22;38228;50.940;4.024;2024-01-27T04:37:57;2.30;99.90
52275;DHT22;38228;50.940;4.024;2024-01-27T04:40:27;2.20;99.90
52275;DHT22;38228;50.940;4.024;2024-01-27T04:42:58;2.10;99.90
52275;DHT22;38228;50.940;4.024;2024-01-27T04:45:39;2.10;99.90
52275;DHT22;38228;50.940;4.024;2024-01-27T04:48:10;2.10;99.90
52275;DHT22;38228;50.940;4.024;2024-01-27T04:50:41;2.10;99.90
52275;DHT22;38228;50.940;4.024;2024-01-27T04:53:12;2.10;99.90
52275;DHT22;38228;50.940;4.024;2024-01-27T04:55:43;2.10;99.90
52275;DHT22;38228;50.940;4.024;2024-01-27T04:58:17;2.10;99.90
52275;DHT22;38228;50.940;4.024;2024-01-27T05:00:54;2.00;99.90
52275;DHT22;38228;50.940;4.024;2024-01-27T05:03:26;2.00;99.90
52275;DHT22;38228;50.940;4.024;2024-01-27T05:06:01;2.20;99.90
52275;DHT22;38228;50.940;4.024;2024-01-27T05:08:29;2.30;99.90
52275;DHT22;38228;50.940;4.024;2024-01-27T05:10:57;2.30;99.90
52275;DHT22;38228;50.940;4.024;2024-01-27T05:13:39;2.10;99.90
52275;DHT22;38228;50.940;4.024;2024-01-27T05:16:14;2.10;99.90
52275;DHT22;38228;50.940;4.024;2024-01-27T05:18:55;2.10;99.90
52275;DHT22;38228;50.940;4.024;2024-01-27T05:21:33;2.30;99.90
52275;DHT22;38228;50.940;4.024;2024-01-27T05:24:10;2.20;99.90
52275;DHT22;38228;50.940;4.024;2024-01-27T05:26:56;2.10;99.90
52275;DHT22;38228;50.940;4.024;2024-01-27T05:29:31;2.20;99.90
52275;DHT22;38228;50.940;4.024;2024-01-27T05:32:02;2.10;99.90
52275;DHT22;38228;50.940;4.024;2024-01-27T05:34:32;2.10;99.90
52275;DHT22;38228;50.940;4.024;2024-01-27T05:37:00;2.30;99.90
52275;DHT22;38228;50.940;4.024;2024-01-27T05:39:27;2.30;99.90
52275;DHT22;38228;50.940;4.024;2024-01-27T05:42:05;2.40;99.90
52275;DHT22;38228;50.940;4.024;2024-01-27T05:44:33;2.30;99.90
52275;DHT22;38228;50.940;4.024;2024-01-27T05:47:05;2.30;99.90
52275;DHT22;38228;50.940;4.024;2024-01-27T05:49:33;2.30;99.90
52275;DHT22;38228;50.940;4.024;2024-01-27T05:52:06;2.30;99.90
52275;DHT22;38228;50.940;4.024;2024-01-27T05:54:43;2.30;99.90
52275;DHT22;38228;50.940;4.024;2024-01-27T05:57:21;2.20;99.90
52275;DHT22;38228;50.940;4.024;2024-01-27T05:59:56;2.40;99.90
52275;DHT22;38228;50.940;4.024;2024-01-27T06:02:25;2.30;99.90
52275;DHT22;38228;50.940;4.024;2024-01-27T06:04:57;2.40;99.90
52275;DHT22;38228;50.940;4.024;2024-01-27T06:07:38;2.40;99.90
52275;DHT22;38228;50.940;4.024;2024-01-27T06:10:09;2.30;99.90
52275;DHT22;38228;50.940;4.024;2024-01-27T06:12:41;2.30;99.90
52275;DHT22;38228;50.940;4.024;2024-01-27T06:15:15;2.30;99.90
52275;DHT22;38228;50.940;4.024;2024-01-27T06:17:52;2.20;99.90
52275;DHT22;38228;50.940;4.024;2024-01-27T06:20:26;2.10;99.90
52275;DHT22;38228;50.940;4.024;2024-01-27T06:22:58;2.20;99.90
52275;DHT22;38228;50.940;4.024;2024-01-27T06:25:29;2.20;99.90
52275;DHT22;38228;50.940;4.024;2024-01-27T06:28:04;2.20;99.90
52275;DHT22;38228;50.940;4.024;2024-01-27T06:30:46;2.40;99.90
52275;DHT22;38228;50.940;4.024;2024-01-27T06:33:36;2.40;99.90
52275;DHT22;38228;50.940;4.024;2024-01-27T06:36:34;2.30;99.90
52275;DHT22;38228;50.940;4.024;2024-01-27T06:39:09;2.20;99.90
52275;DHT22;38228;50.940;4.024;2024-01-27T06:41:37;2.00;99.90
52275;DHT22;38228;50.940;4.024;2024-01-27T06:44:07;2.10;99.90
52275;DHT22;38228;50.940;4.024;2024-01-27T06:46:38;2.10;99.90
52275;DHT22;38228;50.940;4.024;2024-01-27T06:49:12;2.00;99.90
52275;DHT22;38228;50.940;4.024;2024-01-27T06:51:43;2.10;99.90
52275;DHT22;38228;50.940;4.024;2024-01-27T06:54:24;2.10;99.90
52275;DHT22;38228;50.940;4.024;2024-01-27T06:57:05;2.10;99.90
52275;DHT22;38228;50.940;4.024;2024-01-27T06:59:52;2.30;99.90
52275;DHT22;38228;50.940;4.024;2024-01-27T07:02:27;2.40;99.90
52275;DHT22;38228;50.940;4.024;2024-01-27T07:05:00;2.30;99.90
52275;DHT22;38228;50.940;4.024;2024-01-27T07:07:36;2.20;99.90
52275;DHT22;38228;50.940;4.024;2024-01-27T07:10:06;2.30;99.90
52275;DHT22;38228;50.940;4.024;2024-01-27T07:12:36;2.30;99.90
52275;DHT22;38228;50.940;4.024;2024-01-27T07:15:08;2.10;99.90
52275;DHT22;38228;50.940;4.024;2024-01-27T07:17:39;2.00;99.90
52275;DHT22;38228;50.940;4.024;2024-01-27T07:20:20;1.90;99.90
52275;DHT22;38228;50.940;4.024;2024-01-27T07:22:51;2.00;99.90
52275;DHT22;38228;50.940;4.024;2024-01-27T07:25:25;2.00;99.90
52275;DHT22;38228;50.940;4.024;2024-01-27T07:28:08;2.10;99.90
52275;DHT22;38228;50.940;4.024;2024-01-27T07:30:56;2.10;99.90
52275;DHT22;38228;50.940;4.024;2024-01-27T07:33:34;2.10;99.90
52275;DHT22;38228;50.940;4.024;2024-01-27T07:36:04;2.10;99.90
52275;DHT22;38228;50.940;4.024;2024-01-27T07:38:36;2.10;99.90
52275;DHT22;38228;50.940;4.024;2024-01-27T07:41:13;2.10;99.90
52275;DHT22;38228;50.940;4.024;2024-01-27T07:43:44;2.20;99.90
52275;DHT22;38228;50.940;4.024;2024-01-27T07:46:19;2.40;99.90
52275;DHT22;38228;50.940;4.024;2024-01-27T07:48:52;2.40;99.90
52275;DHT22;38228;50.940;4.024;2024-01-27T07:51:31;2.30;99.90
52275;DHT22;38228;50.940;4.024;2024-01-27T07:54:01;2.30;99.90
52275;DHT22;38228;50.940;4.024;2024-01-27T07:56:42;2.30;99.90
52275;DHT22;38228;50.940;4.024;2024-01-27T07:59:13;2.30;99.90
52275;DHT22;38228;50.940;4.024;2024-01-27T08:01:52;2.30;99.90
52275;DHT22;38228;50.940;4.024;2024-01-27T08:04:23;2.30;99.90
52275;DHT22;38228;50.940;4.024;2024-01-27T08:06:54;2.30;99.90
52275;DHT22;38228;50.940;4.024;2024-01-27T08:09:25;2.30;99.90
52275;DHT22;38228;50.940;4.024;2024-01-27T08:12:00;2.30;99.90
52275;DHT22;38228;50.940;4.024;2024-01-27T08:14:37;2.40;99.90
52275;DHT22;38228;50.940;4.024;2024-01-27T08:17:05;2.40;99.90
52275;DHT22;38228;50.940;4.024;2024-01-27T08:19:35;2.50;99.90
52275;DHT22;38228;50.940;4.024;2024-01-27T08:22:09;2.50;99.90
52275;DHT22;38228;50.940;4.024;2024-01-27T08:24:47;2.60;99.90
52275;DHT22;38228;50.940;4.024;2024-01-27T08:27:18;2.70;99.90
52275;DHT22;38228;50.940;4.024;2024-01-27T08:30:01;2.80;99.90
52275;DHT22;38228;50.940;4.024;2024-01-27T08:32:43;2.90;99.90
52275;DHT22;38228;50.940;4.024;2024-01-27T08:35:15;2.80;99.90
52275;DHT22;38228;50.940;4.024;2024-01-27T08:37:46;2.80;99.90
52275;DHT22;38228;50.940;4.024;2024-01-27T08:40:13;2.80;99.90
52275;DHT22;38228;50.940;4.024;2024-01-27T08:42:43;2.80;99.90
52275;DHT22;38228;50.940;4.024;2024-01-27T08:45:11;2.90;99.90
52275;DHT22;38228;50.940;4.024;2024-01-27T08:47:47;2.90;99.90
52275;DHT22;38228;50.940;4.024;2024-01-27T08:50:18;3.10;99.90
52275;DHT22;38228;50.940;4.024;2024-01-27T08:52:59;3.10;99.90
52275;DHT22;38228;50.940;4.024;2024-01-27T08:55:31;3.20;99.90
52275;DHT22;38228;50.940;4.024;2024-01-27T08:58:12;3.20;99.90
52275;DHT22;38228;50.940;4.024;2024-01-27T09:00:43;3.30;99.90
52275;DHT22;38228;50.940;4.024;2024-01-27T09:03:18;3.40;99.90
52275;DHT22;38228;50.940;4.024;2024-01-27T09:05:49;3.30;99.90
52275;DHT22;38228;50.940;4.024;2024-01-27T09:08:30;3.40;99.90
52275;DHT22;38228;50.940;4.024;2024-01-27T09:11:04;3.50;99.90
52275;DHT22;38228;50.940;4.024;2024-01-27T09:13:39;3.60;99.90
52275;DHT22;38228;50.940;4.024;2024-01-27T09:16:11;3.70;99.90
52275;DHT22;38228;50.940;4.024;2024-01-27T09:18:39;3.80;99.90
52275;DHT22;38228;50.940;4.024;2024-01-27T09:21:12;3.90;99.90
52275;DHT22;38228;50.940;4.024;2024-01-27T09:23:46;4.00;99.90
52275;DHT22;38228;50.940;4.024;2024-01-27T09:26:18;4.00;99.90
52275;DHT22;38228;50.940;4.024;2024-01-27T09:28:49;4.00;99.90
52275;DHT22;38228;50.940;4.024;2024-01-27T09:31:22;4.10;99.90
52275;DHT22;38228;50.940;4.024;2024-01-27T09:33:53;4.20;99.90
52275;DHT22;38228;50.940;4.024;2024-01-27T09:36:25;4.30;99.90
52275;DHT22;38228;50.940;4.024;2024-01-27T09:38:57;4.50;99.90
52275;DHT22;38228;50.940;4.024;2024-01-27T09:41:31;4.50;99.90
52275;DHT22;38228;50.940;4.024;2024-01-27T09:44:03;4.60;99.90
52275;DHT22;38228;50.940;4.024;2024-01-27T09:46:32;4.90;99.90
52275;DHT22;38228;50.940;4.024;2024-01-27T09:49:04;5.00;99.90
52275;DHT22;38228;50.940;4.024;2024-01-27T09:51:35;5.10;99.90
52275;DHT22;38228;50.940;4.024;2024-01-27T09:54:10;5.20;99.90
52275;DHT22;38228;50.940;4.024;2024-01-27T09:56:42;5.30;99.90
52275;DHT22;38228;50.940;4.024;2024-01-27T09:59:19;5.30;99.90
52275;DHT22;38228;50.940;4.024;2024-01-27T10:01:47;5.40;99.90
52275;DHT22;38228;50.940;4.024;2024-01-27T10:04:19;5.60;99.90
52275;DHT22;38228;50.940;4.024;2024-01-27T10:06:48;5.70;99.90
52275;DHT22;38228;50.940;4.024;2024-01-27T10:09:16;5.80;99.90
52275;DHT22;38228;50.940;4.024;2024-01-27T10:11:46;6.00;99.90
52275;DHT22;38228;50.940;4.024;2024-01-27T10:14:39;6.00;99.90
52275;DHT22;38228;50.940;4.024;2024-01-27T10:17:20;6.30;99.90
52275;DHT22;38228;50.940;4.024;2024-01-27T10:20:05;6.30;99.90
52275;DHT22;38228;50.940;4.024;2024-01-27T10:22:41;6.40;99.90
52275;DHT22;38228;50.940;4.024;2024-01-27T10:25:12;6.50;99.90
52275;DHT22;38228;50.940;4.024;2024-01-27T10:27:43;6.50;99.90
52275;DHT22;38228;50.940;4.024;2024-01-27T10:30:17;6.50;99.90
52275;DHT22;38228;50.940;4.024;2024-01-27T10:32:55;6.50;99.90
52275;DHT22;38228;50.940;4.024;2024-01-27T10:35:30;6.80;99.90
52275;DHT22;38228;50.940;4.024;2024-01-27T10:38:00;6.70;99.90
52275;DHT22;38228;50.940;4.024;2024-01-27T10:40:31;6.70;99.90
52275;DHT22;38228;50.940;4.024;2024-01-27T10:43:04;6.80;99.90
52275;DHT22;38228;50.940;4.024;2024-01-27T10:45:39;6.90;99.90
52275;DHT22;38228;50.940;4.024;2024-01-27T10:48:11;7.10;99.90
52275;DHT22;38228;50.940;4.024;2024-01-27T10:50:51;7.10;99.90
52275;DHT22;38228;50.940;4.024;2024-01-27T10:53:24;7.20;99.90
52275;DHT22;38228;50.940;4.024;2024-01-27T10:55:57;7.10;99.90
52275;DHT22;38228;50.940;4.024;2024-01-27T10:58:29;7.20;99.90
52275;DHT22;38228;50.940;4.024;2024-01-27T11:01:02;7.20;99.90
52275;DHT22;38228;50.940;4.024;2024-01-27T11:03:30;7.40;99.90
52275;DHT22;38228;50.940;4.024;2024-01-27T11:06:00;7.60;99.90
52275;DHT22;38228;50.940;4.024;2024-01-27T11:08:30;7.70;99.90
52275;DHT22;38228;50.940;4.024;2024-01-27T11:11:02;7.80;99.90
52275;DHT22;38228;50.940;4.024;2024-01-27T11:13:30;7.70;99.90
52275;DHT22;38228;50.940;4.024;2024-01-27T11:15:57;7.70;99.90
52275;DHT22;38228;50.940;4.024;2024-01-27T11:18:26;7.70;99.90
52275;DHT22;38228;50.940;4.024;2024-01-27T11:20:55;7.80;99.90
52275;DHT22;38228;50.940;4.024;2024-01-27T11:23:31;7.80;99.90
52275;DHT22;38228;50.940;4.024;2024-01-27T11:26:08;7.90;99.90
52275;DHT22;38228;50.940;4.024;2024-01-27T11:28:37;7.80;99.90
52275;DHT22;38228;50.940;4.024;2024-01-27T11:31:19;8.00;99.90
52275;DHT22;38228;50.940;4.024;2024-01-27T11:33:51;8.00;99.90
52275;DHT22;38228;50.940;4.024;2024-01-27T11:36:23;8.30;99.90
52275;DHT22;38228;50.940;4.024;2024-01-27T11:38:53;8.40;99.90
52275;DHT22;38228;50.940;4.024;2024-01-27T11:44:17;8.50;99.90
52275;DHT22;38228;50.940;4.024;2024-01-27T11:46:46;8.50;99.90
52275;DHT22;38228;50.940;4.024;2024-01-27T11:49:17;8.50;99.90
52275;DHT22;38228;50.940;4.024;2024-01-27T11:51:51;8.80;99.90
52275;DHT22;38228;50.940;4.024;2024-01-27T11:54:17;8.80;99.90
52275;DHT22;38228;50.940;4.024;2024-01-27T11:56:43;9.00;99.90
52275;DHT22;38228;50.940;4.024;2024-01-27T11:59:10;9.00;99.90
52275;DHT22;38228;50.940;4.024;2024-01-27T12:01:36;9.00;99.90
52275;DHT22;38228;50.940;4.024;2024-01-27T12:04:04;9.10;99.90
52275;DHT22;38228;50.940;4.024;2024-01-27T12:06:30;9.10;99.90
52275;DHT22;38228;50.940;4.024;2024-01-27T12:08:57;9.20;99.90
52275;DHT22;38228;50.940;4.024;2024-01-27T12:11:24;9.30;99.90
52275;DHT22;38228;50.940;4.024;2024-01-27T12:13:50;9.40;99.90
52275;DHT22;38228;50.940;4.024;2024-01-27T12:16:16;9.50;99.90
52275;DHT22;38228;50.940;4.024;2024-01-27T12:18:44;9.30;99.90
52275;DHT22;38228;50.940;4.024;2024-01-27T12:21:10;9.50;99.90
52275;DHT22;38228;50.940;4.024;2024-01-27T12:23:35;9.70;99.90
52275;DHT22;38228;50.940;4.024;2024-01-27T12:26:01;9.80;99.90
52275;DHT22;38228;50.940;4.024;2024-01-27T12:28:27;9.80;99.90
52275;DHT22;38228;50.940;4.024;2024-01-27T12:30:53;9.70;99.90
52275;DHT22;38228;50.940;4.024;2024-01-27T12:33:19;9.70;99.90
52275;DHT22;38228;50.940;4.024;2024-01-27T12:35:49;9.50;99.90
52275;DHT22;38228;50.940;4.024;2024-01-27T12:38:18;9.60;99.90
52275;DHT22;38228;50.940;4.024;2024-01-27T12:40:46;9.60;99.90
52275;DHT22;38228;50.940;4.024;2024-01-27T12:43:17;9.70;99.90
52275;DHT22;38228;50.940;4.024;2024-01-27T12:45:42;9.70;99.90
52275;DHT22;38228;50.940;4.024;2024-01-27T12:48:08;9.80;99.90
52275;DHT22;38228;50.940;4.024;2024-01-27T12:50:34;10.00;99.90
52275;DHT22;38228;50.940;4.024;2024-01-27T12:53:00;9.90;99.90
52275;DHT22;38228;50.940;4.024;2024-01-27T12:55:31;9.90;99.90
52275;DHT22;38228;50.940;4.024;2024-01-27T12:57:59;9.80;99.90
52275;DHT22;38228;50.940;4.024;2024-01-27T13:00:38;9.80;99.90
52275;DHT22;38228;50.940;4.024;2024-01-27T13:03:09;9.80;99.90
52275;DHT22;38228;50.940;4.024;2024-01-27T13:05:44;9.80;99.90
52275;DHT22;38228;50.940;4.024;2024-01-27T13:08:14;9.80;99.90
52275;DHT22;38228;50.940;4.024;2024-01-27T13:10:41;9.90;99.90
52275;DHT22;38228;50.940;4.024;2024-01-27T13:13:07;9.90;99.90
52275;DHT22;38228;50.940;4.024;2024-01-27T13:15:37;9.80;99.90
52275;DHT22;38228;50.940;4.024;2024-01-27T13:18:04;9.80;99.90
52275;DHT22;38228;50.940;4.024;2024-01-27T13:20:36;9.70;99.90
52275;DHT22;38228;50.940;4.024;2024-01-27T13:23:03;9.70;99.90
52275;DHT22;38228;50.940;4.024;2024-01-27T13:25:32;9.70;99.90
52275;DHT22;38228;50.940;4.024;2024-01-27T13:28:10;9.70;99.90
52275;DHT22;38228;50.940;4.024;2024-01-27T13:30:40;9.60;99.90
52275;DHT22;38228;50.940;4.024;2024-01-27T13:33:07;9.60;99.90
52275;DHT22;38228;50.940;4.024;2024-01-27T13:35:33;9.60;99.90
52275;DHT22;38228;50.940;4.024;2024-01-27T13:37:59;9.60;99.90
52275;DHT22;38228;50.940;4.024;2024-01-27T13:40:26;9.60;99.90
52275;DHT22;38228;50.940;4.024;2024-01-27T13:42:52;9.60;99.90
52275;DHT22;38228;50.940;4.024;2024-01-27T13:45:18;9.70;99.90
52275;DHT22;38228;50.940;4.024;2024-01-27T13:47:44;9.90;99.90
52275;DHT22;38228;50.940;4.024;2024-01-27T13:50:11;10.00;99.90
52275;DHT22;38228;50.940;4.024;2024-01-27T13:52:37;10.10;99.90
52275;DHT22;38228;50.940;4.024;2024-01-27T13:55:03;10.20;99.90
52275;DHT22;38228;50.940;4.024;2024-01-27T13:57:29;10.20;99.90
52275;DHT22;38228;50.940;4.024;2024-01-27T13:59:55;10.20;99.90
52275;DHT22;38228;50.940;4.024;2024-01-27T14:02:21;10.10;99.90
52275;DHT22;38228;50.940;4.024;2024-01-27T14:04:48;10.30;99.90
52275;DHT22;38228;50.940;4.024;2024-01-27T14:07:16;10.00;99.90
52275;DHT22;38228;50.940;4.024;2024-01-27T14:09:45;10.00;99.90
52275;DHT22;38228;50.940;4.024;2024-01-27T14:12:15;9.90;99.90
52275;DHT22;38228;50.940;4.024;2024-01-27T14:14:41;9.90;99.90
52275;DHT22;38228;50.940;4.024;2024-01-27T14:17:09;9.90;99.90
52275;DHT22;38228;50.940;4.024;2024-01-27T14:19:35;9.80;99.90
52275;DHT22;38228;50.940;4.024;2024-01-27T14:22:02;9.70;99.90
52275;DHT22;38228;50.940;4.024;2024-01-27T14:24:29;9.50;99.90
52275;DHT22;38228;50.940;4.024;2024-01-27T14:26:55;9.50;99.90
52275;DHT22;38228;50.940;4.024;2024-01-27T14:29:21;9.30;99.90
52275;DHT22;38228;50.940;4.024;2024-01-27T14:31:47;9.30;99.90
52275;DHT22;38228;50.940;4.024;2024-01-27T14:34:12;9.30;99.90
52275;DHT22;38228;50.940;4.024;2024-01-27T14:36:39;9.20;99.90
52275;DHT22;38228;50.940;4.024;2024-01-27T14:39:06;9.10;99.90
52275;DHT22;38228;50.940;4.024;2024-01-27T14:41:37;9.00;99.90
52275;DHT22;38228;50.940;4.024;2024-01-27T14:44:05;9.00;99.90
52275;DHT22;38228;50.940;4.024;2024-01-27T14:46:31;9.00;99.90
52275;DHT22;38228;50.940;4.024;2024-01-27T14:48:57;8.90;99.90
52275;DHT22;38228;50.940;4.024;2024-01-27T14:51:23;8.90;99.90
52275;DHT22;38228;50.940;4.024;2024-01-27T14:53:49;8.90;99.90
52275;DHT22;38228;50.940;4.024;2024-01-27T14:56:15;8.80;99.90
52275;DHT22;38228;50.940;4.024;2024-01-27T14:58:41;8.90;99.90
52275;DHT22;38228;50.940;4.024;2024-01-27T15:01:11;8.80;99.90
52275;DHT22;38228;50.940;4.024;2024-01-27T15:03:41;8.80;99.90
52275;DHT22;38228;50.940;4.024;2024-01-27T15:06:12;8.70;99.90
52275;DHT22;38228;50.940;4.024;2024-01-27T15:08:38;8.70;99.90
52275;DHT22;38228;50.940;4.024;2024-01-27T15:11:04;8.70;99.90
52275;DHT22;38228;50.940;4.024;2024-01-27T15:13:36;8.50;99.90
52275;DHT22;38228;50.940;4.024;2024-01-27T15:16:06;8.60;99.90
52275;DHT22;38228;50.940;4.024;2024-01-27T15:18:34;8.40;99.90
52275;DHT22;38228;50.940;4.024;2024-01-27T15:21:06;8.40;99.90
52275;DHT22;38228;50.940;4.024;2024-01-27T15:23:32;8.40;99.90
52275;DHT22;38228;50.940;4.024;2024-01-27T15:25:57;8.50;99.90
52275;DHT22;38228;50.940;4.024;2024-01-27T15:28:24;8.40;99.90
52275;DHT22;38228;50.940;4.024;2024-01-27T15:30:50;8.40;99.90
52275;DHT22;38228;50.940;4.024;2024-01-27T15:33:16;8.40;99.90
52275;DHT22;38228;50.940;4.024;2024-01-27T15:35:48;8.30;99.90
52275;DHT22;38228;50.940;4.024;2024-01-27T15:38:14;8.30;99.90
52275;DHT22;38228;50.940;4.024;2024-01-27T15:40:40;8.20;99.90
52275;DHT22;38228;50.940;4.024;2024-01-27T15:43:05;8.10;99.90
52275;DHT22;38228;50.940;4.024;2024-01-27T15:45:31;8.00;99.90
52275;DHT22;38228;50.940;4.024;2024-01-27T15:47:58;7.90;99.90
52275;DHT22;38228;50.940;4.024;2024-01-27T15:50:25;7.80;99.90
52275;DHT22;38228;50.940;4.024;2024-01-27T15:52:56;7.80;99.90
52275;DHT22;38228;50.940;4.024;2024-01-27T15:55:23;7.80;99.90
52275;DHT22;38228;50.940;4.024;2024-01-27T15:57:49;7.70;99.90
52275;DHT22;38228;50.940;4.024;2024-01-27T16:00:18;7.60;99.90
52275;DHT22;38228;50.940;4.024;2024-01-27T16:02:57;7.70;99.90
52275;DHT22;38228;50.940;4.024;2024-01-27T16:05:28;7.70;99.90
52275;DHT22;38228;50.940;4.024;2024-01-27T16:08:06;7.60;99.90
52275;DHT22;38228;50.940;4.024;2024-01-27T16:10:38;7.50;99.90
52275;DHT22;38228;50.940;4.024;2024-01-27T16:13:11;7.50;99.90
52275;DHT22;38228;50.940;4.024;2024-01-27T16:15:50;7.40;99.90
52275;DHT22;38228;50.940;4.024;2024-01-27T16:18:17;7.40;99.90